Time;durP1;ratioP1;P1;durP2;ratioP2;P2;SDS_P1;SDS_P2;PMS_P1;PMS_P2;Temp;Humidity;BMP_temperature;BMP_pressure;BME280_temperature;BME280_humidity;BME280_pressure;Samples;Min_cycle;Max_cycle;Signal;HPM_P1;HPM_P2
2022/06/24 00:01:14;;;;;;;4.93;2.40;;;24.60;90.00;;;;;;4991937;28;20236;-76
2022/06/24 00:03:44;;;;;;;2.80;2.08;;;24.70;89.80;;;;;;4972907;28;20207;-81
2022/06/24 00:06:16;;;;;;;2.83;2.05;;;24.60;89.80;;;;;;4972777;28;20203;-83
2022/06/24 00:08:57;;;;;;;2.05;1.95;;;24.50;89.80;;;;;;4973453;28;20221;-84
2022/06/24 00:11:27;;;;;;;2.60;2.40;;;24.50;89.60;;;;;;4973434;28;20574;-85
2022/06/24 00:14:04;;;;;;;3.22;2.53;;;24.50;89.50;;;;;;4973074;28;20207;-84
2022/06/24 00:16:31;;;;;;;2.30;2.20;;;24.50;89.50;;;;;;4973391;28;20198;-84
2022/06/24 00:19:11;;;;;;;2.40;2.20;;;24.50;89.20;;;;;;4973290;28;20235;-84
2022/06/24 00:21:38;;;;;;;2.50;2.30;;;24.40;88.70;;;;;;4973067;28;20207;-84
2022/06/24 00:24:06;;;;;;;3.10;2.28;;;24.40;88.80;;;;;;4973177;28;20214;-85
2022/06/24 00:26:41;;;;;;;2.85;2.53;;;24.40;88.50;;;;;;4973538;28;20226;-85
2022/06/24 00:29:08;;;;;;;2.35;2.25;;;24.50;88.30;;;;;;4973000;28;20859;-85
2022/06/24 00:31:35;;;;;;;3.15;2.30;;;24.50;88.10;;;;;;4972663;28;20223;-84
2022/06/24 00:34:21;;;;;;;4.50;2.30;;;24.50;88.10;;;;;;4981746;28;20198;-80
2022/06/24 00:36:47;;;;;;;2.63;2.45;;;24.50;88.10;;;;;;4991265;28;20190;-79
2022/06/24 00:39:14;;;;;;;3.03;2.00;;;24.40;88.10;;;;;;4991275;28;20284;-79
2022/06/24 00:41:43;;;;;;;3.17;2.50;;;24.40;89.00;;;;;;4991479;28;20237;-79
2022/06/24 00:44:13;;;;;;;2.60;2.40;;;24.40;88.70;;;;;;4977300;28;20207;-79
2022/06/24 00:46:42;;;;;;;2.40;2.20;;;24.40;88.50;;;;;;4972422;28;20218;-80
2022/06/24 00:49:12;;;;;;;2.95;2.15;;;24.30;88.50;;;;;;4971320;28;20210;-79
2022/06/24 00:51:41;;;;;;;3.15;2.33;;;24.30;88.70;;;;;;4971703;28;20222;-79
2022/06/24 00:54:09;;;;;;;5.22;2.40;;;24.40;88.60;;;;;;4971689;28;20246;-80
2022/06/24 00:56:37;;;;;;;4.30;2.45;;;24.40;88.40;;;;;;4971270;28;20202;-79
2022/06/24 00:59:07;;;;;;;4.50;2.63;;;24.40;88.60;;;;;;4971091;28;20239;-79
2022/06/24 01:01:36;;;;;;;2.85;2.65;;;24.30;88.60;;;;;;4971704;28;20226;-80
2022/06/24 01:04:07;;;;;;;3.80;2.40;;;24.30;89.10;;;;;;4971190;28;20206;-81
2022/06/24 01:06:37;;;;;;;2.40;2.30;;;24.30;89.30;;;;;;4971467;28;20206;-80
2022/06/24 01:09:05;;;;;;;2.55;2.30;;;24.20;89.10;;;;;;4971524;28;20229;-81
2022/06/24 01:11:35;;;;;;;3.42;2.90;;;24.30;89.10;;;;;;4971665;28;20211;-80
2022/06/24 01:14:03;;;;;;;2.60;2.40;;;24.30;89.00;;;;;;4973734;28;20217;-81
2022/06/24 01:16:31;;;;;;;2.65;2.50;;;24.30;89.20;;;;;;4971510;28;20583;-81
2022/06/24 01:19:00;;;;;;;2.95;2.58;;;24.30;89.00;;;;;;4971159;28;20234;-79
2022/06/24 01:21:35;;;;;;;2.28;2.17;;;24.30;89.00;;;;;;4971360;28;20330;-79
2022/06/24 01:24:07;;;;;;;4.32;2.60;;;24.30;88.80;;;;;;4971095;28;20224;-79
2022/06/24 01:26:34;;;;;;;2.95;2.75;;;24.20;88.80;;;;;;4970993;28;20696;-79
2022/06/24 01:29:01;;;;;;;3.15;2.40;;;24.10;88.90;;;;;;4971247;28;20285;-81
2022/06/24 01:31:28;;;;;;;2.80;2.60;;;24.10;89.10;;;;;;4970877;28;20226;-79
2022/06/24 01:33:55;;;;;;;2.53;2.30;;;24.10;89.00;;;;;;4970798;28;20209;-77
2022/06/24 01:36:22;;;;;;;3.38;2.50;;;24.10;88.90;;;;;;4970561;28;20223;-77
2022/06/24 01:38:51;;;;;;;3.03;2.70;;;24.20;89.00;;;;;;4971166;28;20227;-78
2022/06/24 01:41:18;;;;;;;3.03;2.83;;;24.20;88.80;;;;;;4970981;28;20243;-76
2022/06/24 01:43:45;;;;;;;3.10;2.67;;;24.10;88.70;;;;;;4960780;28;20215;-77
2022/06/24 01:46:12;;;;;;;3.35;2.97;;;24.20;89.00;;;;;;4951537;29;20350;-76
2022/06/24 01:48:39;;;;;;;3.20;2.88;;;24.10;88.90;;;;;;4951552;29;20577;-76
2022/06/24 01:51:12;;;;;;;6.28;2.38;;;24.10;88.90;;;;;;4951312;29;20219;-77
2022/06/24 01:53:39;;;;;;;3.08;2.75;;;24.10;89.30;;;;;;4961922;28;20213;-76
2022/06/24 01:56:10;;;;;;;2.88;2.47;;;24.10;89.00;;;;;;4970936;28;20210;-77
2022/06/24 01:58:37;;;;;;;2.50;2.30;;;24.00;89.30;;;;;;4970937;28;20206;-78
2022/06/24 02:01:10;;;;;;;2.85;2.60;;;24.00;89.30;;;;;;4969371;28;20199;-76
2022/06/24 02:03:38;;;;;;;2.78;2.58;;;24.00;89.40;;;;;;4970032;28;20728;-76
2022/06/24 02:06:10;;;;;;;4.60;3.00;;;24.00;89.30;;;;;;4969717;28;20211;-76
2022/06/24 02:08:38;;;;;;;2.70;2.50;;;23.90;89.70;;;;;;4969812;28;20221;-76
2022/06/24 02:13:59;;;;;;;3.10;2.80;;;23.90;89.50;;;;;;4970026;28;20678;-76
2022/06/24 02:16:26;;;;;;;4.50;2.70;;;23.90;89.60;;;;;;4969925;28;20231;-76
2022/06/24 02:18:54;;;;;;;3.40;2.60;;;23.80;89.80;;;;;;4969807;28;20231;-76
2022/06/24 02:21:22;;;;;;;2.78;2.58;;;23.80;89.90;;;;;;4969376;28;20218;-76
2022/06/24 02:23:49;;;;;;;4.20;2.72;;;23.80;90.00;;;;;;4970082;28;20626;-76
2022/06/24 02:26:17;;;;;;;4.93;2.72;;;23.80;90.00;;;;;;4969642;28;20713;-76
2022/06/24 02:28:44;;;;;;;3.38;2.85;;;23.80;90.00;;;;;;4969798;28;20206;-76
2022/06/24 02:31:11;;;;;;;3.17;2.97;;;23.70;90.00;;;;;;4950674;28;20235;-76
2022/06/24 02:33:38;;;;;;;2.95;2.72;;;23.70;90.00;;;;;;4949865;29;20943;-77
2022/06/24 02:36:11;;;;;;;3.30;3.00;;;23.70;90.20;;;;;;4950096;29;20211;-76
2022/06/24 02:38:38;;;;;;;2.95;2.60;;;23.60;90.20;;;;;;4965946;28;20210;-76
2022/06/24 02:41:11;;;;;;;3.45;2.70;;;23.60;90.20;;;;;;4969362;28;20242;-76
2022/06/24 02:43:40;;;;;;;3.53;2.90;;;23.60;90.20;;;;;;4969673;28;20211;-76
2022/06/24 02:46:12;;;;;;;3.38;3.08;;;23.60;90.10;;;;;;4969493;28;20214;-76
2022/06/24 02:48:41;;;;;;;3.08;2.67;;;23.60;90.00;;;;;;4969178;28;20242;-76
2022/06/24 02:51:12;;;;;;;2.72;2.53;;;23.60;90.20;;;;;;4969643;28;20222;-76
2022/06/24 02:53:39;;;;;;;3.78;2.80;;;23.50;90.20;;;;;;4969656;28;20206;-76
2022/06/24 02:56:10;;;;;;;2.92;2.70;;;23.50;90.20;;;;;;4969340;28;20648;-76
2022/06/24 02:58:39;;;;;;;3.40;3.10;;;23.50;90.30;;;;;;4969663;28;20225;-76
2022/06/24 03:01:10;;;;;;;5.53;2.90;;;23.50;90.30;;;;;;4969452;28;20218;-77
2022/06/24 03:03:37;;;;;;;2.92;2.83;;;23.50;90.30;;;;;;4965254;28;20230;-76
2022/06/24 03:06:11;;;;;;;4.88;3.20;;;23.40;90.40;;;;;;4970036;28;20207;-79
2022/06/24 03:08:39;;;;;;;4.80;3.15;;;23.50;90.40;;;;;;4969961;28;20557;-78
2022/06/24 03:11:09;;;;;;;3.08;2.88;;;23.40;90.60;;;;;;4969842;28;20211;-79
2022/06/24 03:13:36;;;;;;;4.13;3.20;;;23.40;90.60;;;;;;4969384;28;20207;-79
2022/06/24 03:16:11;;;;;;;3.08;2.78;;;23.40;90.70;;;;;;4969629;28;20210;-79
2022/06/24 03:18:38;;;;;;;3.50;3.20;;;23.40;90.60;;;;;;4967860;28;20603;-79
2022/06/24 03:21:11;;;;;;;7.45;3.28;;;23.40;90.70;;;;;;4966491;28;20245;-79
2022/06/24 03:23:38;;;;;;;7.03;3.38;;;23.40;90.70;;;;;;4966802;28;20213;-79
2022/06/24 03:26:09;;;;;;;4.78;3.05;;;23.30;90.70;;;;;;4967454;28;20214;-78
2022/06/24 03:28:36;;;;;;;3.33;3.05;;;23.40;90.70;;;;;;4967634;28;20214;-79
2022/06/24 03:31:13;;;;;;;4.30;2.70;;;23.30;90.70;;;;;;4966514;28;20608;-79
2022/06/24 03:33:40;;;;;;;4.82;3.08;;;23.40;90.70;;;;;;4956078;28;20195;-75
2022/06/24 03:36:13;;;;;;;4.95;3.03;;;23.30;90.70;;;;;;4965887;28;20209;-76
2022/06/24 03:38:40;;;;;;;4.20;2.83;;;23.40;90.80;;;;;;4967649;28;20217;-75
2022/06/24 03:41:10;;;;;;;3.08;2.88;;;23.40;90.80;;;;;;4967730;28;20246;-78
2022/06/24 03:43:36;;;;;;;3.85;3.05;;;23.30;90.70;;;;;;4958317;28;20654;-79
2022/06/24 03:46:13;;;;;;;4.25;3.08;;;23.30;90.80;;;;;;4964998;28;20202;-79
2022/06/24 03:48:39;;;;;;;3.40;2.88;;;23.30;90.70;;;;;;4966942;28;20657;-79
2022/06/24 03:51:09;;;;;;;3.17;2.85;;;23.30;90.70;;;;;;4966841;28;20678;-79
2022/06/24 03:53:36;;;;;;;3.30;2.65;;;23.30;90.70;;;;;;4967233;28;20214;-79
2022/06/24 03:56:11;;;;;;;3.22;2.92;;;23.20;90.90;;;;;;4966331;28;20577;-79
2022/06/24 03:58:37;;;;;;;3.33;3.03;;;23.20;91.10;;;;;;4966951;28;20209;-78
2022/06/24 04:01:13;;;;;;;3.28;2.92;;;23.20;90.90;;;;;;4966128;28;20249;-78
2022/06/24 04:03:40;;;;;;;9.38;3.55;;;23.20;91.00;;;;;;4966590;28;20199;-77
2022/06/24 04:06:10;;;;;;;2.88;2.60;;;23.30;91.10;;;;;;4963287;28;20207;-78
2022/06/24 04:08:36;;;;;;;3.35;3.10;;;23.20;90.90;;;;;;4968969;28;20211;-78
2022/06/24 04:11:10;;;;;;;3.55;2.70;;;23.20;90.90;;;;;;4969597;28;20302;-77
2022/06/24 04:13:36;;;;;;;2.88;2.67;;;23.20;91.10;;;;;;4964049;28;20211;-77
2022/06/24 04:16:11;;;;;;;3.10;2.80;;;23.20;91.10;;;;;;4966628;28;20214;-77
2022/06/24 04:18:38;;;;;;;3.70;2.90;;;23.30;90.90;;;;;;4964076;28;20304;-78
2022/06/24 04:21:12;;;;;;;3.50;2.75;;;23.30;91.00;;;;;;4961705;28;20242;-78
2022/06/24 04:23:40;;;;;;;3.20;2.67;;;23.20;91.00;;;;;;4958319;28;20289;-78
2022/06/24 04:26:10;;;;;;;3.10;2.80;;;23.20;91.00;;;;;;4962975;28;20210;-78
2022/06/24 04:28:37;;;;;;;4.20;2.60;;;23.30;91.20;;;;;;4965265;28;20230;-78
2022/06/24 04:31:11;;;;;;;3.42;2.90;;;23.20;91.20;;;;;;4961986;28;20226;-78
2022/06/24 04:33:39;;;;;;;2.80;2.60;;;23.20;91.20;;;;;;4965868;28;20211;-78
2022/06/24 04:36:12;;;;;;;5.45;2.70;;;23.20;91.20;;;;;;4963484;28;20258;-78
2022/06/24 04:38:39;;;;;;;2.85;2.60;;;23.20;91.40;;;;;;4970661;28;20281;-77
2022/06/24 04:41:13;;;;;;;4.53;2.72;;;23.30;91.40;;;;;;4952836;28;20357;-77
2022/06/24 04:43:40;;;;;;;2.97;2.67;;;23.30;91.40;;;;;;4965527;28;20729;-77
2022/06/24 04:46:14;;;;;;;2.78;2.63;;;23.30;91.50;;;;;;4966076;28;20211;-77
2022/06/24 04:48:41;;;;;;;2.72;2.50;;;23.30;91.50;;;;;;4967299;28;20207;-77
2022/06/24 04:51:12;;;;;;;3.00;2.80;;;23.30;91.40;;;;;;4961116;28;20218;-77
2022/06/24 04:53:39;;;;;;;3.42;3.13;;;23.30;91.40;;;;;;4959686;28;20209;-77
2022/06/24 04:56:09;;;;;;;4.40;2.80;;;23.30;91.60;;;;;;4963252;28;20566;-77
2022/06/24 04:58:35;;;;;;;4.53;2.67;;;23.40;91.70;;;;;;4964457;28;20217;-77
2022/06/24 05:01:02;;;;;;;2.88;2.78;;;23.40;91.60;;;;;;4960869;28;20227;-77
2022/06/24 05:03:30;;;;;;;3.72;2.78;;;23.40;91.50;;;;;;4966194;28;20320;-77
2022/06/24 05:05:57;;;;;;;3.10;2.72;;;23.40;91.60;;;;;;4962173;28;20836;-78
2022/06/24 05:08:24;;;;;;;2.90;2.70;;;23.50;91.50;;;;;;4959827;28;20214;-77
2022/06/24 05:10:51;;;;;;;5.07;2.90;;;23.30;91.70;;;;;;4965084;28;20572;-78
2022/06/24 05:13:17;;;;;;;12.05;2.95;;;23.40;91.80;;;;;;4970914;28;20234;-77
2022/06/24 05:15:44;;;;;;;2.40;2.30;;;23.40;91.70;;;;;;4971714;28;20302;-77
2022/06/24 05:18:11;;;;;;;4.13;2.80;;;23.40;91.70;;;;;;4961605;28;20617;-77
2022/06/24 05:20:39;;;;;;;3.05;2.75;;;23.50;91.60;;;;;;4960455;28;20231;-78
2022/06/24 05:23:06;;;;;;;3.65;2.95;;;23.50;91.40;;;;;;4963936;28;20758;-78
2022/06/24 05:25:34;;;;;;;9.40;2.75;;;23.50;91.60;;;;;;4959987;28;20613;-78
2022/06/24 05:28:00;;;;;;;4.32;2.90;;;23.60;91.70;;;;;;4962539;28;20207;-77
2022/06/24 05:30:27;;;;;;;2.67;2.50;;;23.60;91.60;;;;;;4961576;28;20532;-78
2022/06/24 05:32:54;;;;;;;4.10;2.55;;;23.60;91.40;;;;;;4963160;28;20207;-78
2022/06/24 05:35:21;;;;;;;3.67;2.90;;;23.60;91.50;;;;;;4960990;28;20217;-78
2022/06/24 05:37:49;;;;;;;4.43;2.60;;;23.70;91.50;;;;;;4960815;28;20748;-78
2022/06/24 05:40:15;;;;;;;2.90;2.22;;;23.70;91.50;;;;;;4961867;28;20254;-78
2022/06/24 05:42:42;;;;;;;2.80;2.60;;;23.70;91.60;;;;;;4961295;28;20200;-78
2022/06/24 05:45:10;;;;;;;2.90;2.50;;;23.70;91.50;;;;;;4961258;28;20210;-78
2022/06/24 05:47:37;;;;;;;2.95;2.70;;;23.70;91.70;;;;;;4963164;28;20226;-78
2022/06/24 05:50:04;;;;;;;2.80;2.60;;;23.70;91.30;;;;;;4961974;28;20210;-78
2022/06/24 05:55:17;;;;;;;3.17;2.17;;;23.80;91.30;;;;;;4964920;28;20205;-78
2022/06/24 05:57:43;;;;;;;6.05;2.90;;;23.80;91.30;;;;;;4959068;28;20214;-78
2022/06/24 06:00:11;;;;;;;4.05;2.85;;;23.80;91.60;;;;;;4961911;28;20237;-78
2022/06/24 06:02:38;;;;;;;2.90;2.50;;;23.90;91.30;;;;;;4961412;28;20203;-78
2022/06/24 06:05:05;;;;;;;2.53;2.33;;;23.90;91.50;;;;;;4962755;28;20204;-78
2022/06/24 06:07:32;;;;;;;7.93;2.35;;;23.90;91.40;;;;;;4959823;28;20207;-77
2022/06/24 06:09:59;;;;;;;3.20;2.60;;;23.90;91.30;;;;;;4961152;28;20742;-78
2022/06/24 06:12:27;;;;;;;4.07;2.58;;;23.90;91.70;;;;;;4960083;28;20207;-78
2022/06/24 06:14:53;;;;;;;2.70;2.50;;;23.90;91.60;;;;;;4962608;28;20663;-78
2022/06/24 06:17:20;;;;;;;5.78;2.33;;;24.00;91.40;;;;;;4965198;28;20210;-78
2022/06/24 06:19:47;;;;;;;2.65;2.45;;;24.00;91.40;;;;;;4960849;28;20218;-78
2022/06/24 06:22:14;;;;;;;3.53;2.58;;;24.10;91.50;;;;;;4959655;28;20207;-78
2022/06/24 06:24:41;;;;;;;3.10;2.60;;;24.10;91.40;;;;;;4961478;28;20678;-77
2022/06/24 06:27:08;;;;;;;9.18;2.92;;;24.10;91.40;;;;;;4964133;28;20214;-78
2022/06/24 06:29:37;;;;;;;5.60;2.15;;;24.10;91.10;;;;;;4962411;28;20211;-77
2022/06/24 06:32:04;;;;;;;6.28;2.38;;;24.10;91.00;;;;;;4958423;28;20243;-78
2022/06/24 06:34:32;;;;;;;5.63;2.50;;;24.20;91.00;;;;;;4963547;28;20202;-78
2022/06/24 06:36:59;;;;;;;2.53;2.42;;;24.30;91.20;;;;;;4962820;28;20253;-78
2022/06/24 06:39:26;;;;;;;10.27;3.25;;;24.20;90.80;;;;;;4959063;28;20208;-78
2022/06/24 06:41:52;;;;;;;5.55;2.42;;;24.30;91.00;;;;;;4961440;28;20242;-78
2022/06/24 06:44:20;;;;;;;4.32;2.42;;;24.30;91.20;;;;;;4959830;28;20669;-78
2022/06/24 06:46:48;;;;;;;2.65;2.50;;;24.40;91.10;;;;;;4966763;28;20262;-78
2022/06/24 06:49:14;;;;;;;4.65;2.58;;;24.40;90.80;;;;;;4964991;28;20207;-78
2022/06/24 06:51:41;;;;;;;2.63;2.35;;;24.40;91.00;;;;;;4958042;28;20207;-78
2022/06/24 06:54:08;;;;;;;4.72;2.72;;;24.40;90.30;;;;;;4961123;28;20223;-78
2022/06/24 06:56:35;;;;;;;6.55;2.83;;;24.50;90.50;;;;;;4962237;28;20200;-78
2022/06/24 06:59:02;;;;;;;7.95;2.83;;;24.50;90.60;;;;;;4960765;28;20210;-78
2022/06/24 07:01:28;;;;;;;4.53;2.88;;;24.50;90.80;;;;;;4960815;28;20306;-78
2022/06/24 07:03:57;;;;;;;4.82;2.42;;;24.60;91.00;;;;;;4962804;28;20406;-77
2022/06/24 07:06:24;;;;;;;5.30;2.80;;;24.60;90.90;;;;;;4962109;28;20219;-78
2022/06/24 07:08:51;;;;;;;3.53;2.70;;;24.70;90.40;;;;;;4964090;28;20207;-78
2022/06/24 07:11:21;;;;;;;3.00;2.30;;;24.70;90.20;;;;;;4960643;28;20310;-78
2022/06/24 07:13:48;;;;;;;3.67;2.97;;;24.70;90.10;;;;;;4960715;28;20195;-77
2022/06/24 07:16:24;;;;;;;3.67;2.33;;;24.70;90.10;;;;;;4962807;28;20210;-77
2022/06/24 07:18:51;;;;;;;4.32;2.60;;;24.80;90.10;;;;;;4959931;28;20223;-78
2022/06/24 07:21:19;;;;;;;3.08;2.22;;;24.80;90.00;;;;;;4962179;28;20227;-78
2022/06/24 07:23:46;;;;;;;3.83;2.97;;;24.80;89.80;;;;;;4962779;28;20214;-78
2022/06/24 07:26:24;;;;;;;3.47;2.97;;;24.90;90.10;;;;;;4962843;28;20221;-76
2022/06/24 07:28:51;;;;;;;1999.90;966.53;;;24.90;90.10;;;;;;4958979;28;20682;-73
2022/06/24 07:31:22;;;;;;;65.55;30.88;;;25.00;90.10;;;;;;4959582;28;20223;-75
2022/06/24 07:33:49;;;;;;;2.95;2.70;;;25.00;90.00;;;;;;4958395;28;20207;-74
2022/06/24 07:36:23;;;;;;;5.07;2.45;;;25.00;89.70;;;;;;4963851;28;20692;-74
2022/06/24 07:38:51;;;;;;;6.07;3.00;;;25.10;89.60;;;;;;4961447;28;20207;-75
2022/06/24 07:41:27;;;;;;;3.22;2.30;;;25.10;89.30;;;;;;4964982;28;20238;-74
2022/06/24 07:43:54;;;;;;;3.35;2.22;;;25.20;88.60;;;;;;4963343;28;20206;-74
2022/06/24 07:46:30;;;;;;;3.78;2.72;;;25.20;88.70;;;;;;4959738;28;20207;-75
2022/06/24 07:48:57;;;;;;;3.85;2.67;;;25.20;88.10;;;;;;4962196;28;20298;-75
2022/06/24 07:51:25;;;;;;;2.60;2.38;;;25.20;88.40;;;;;;4962450;28;20206;-75
2022/06/24 07:53:52;;;;;;;2.95;2.45;;;25.30;88.60;;;;;;4965948;28;20209;-75
2022/06/24 07:59:21;;;;;;;2.67;2.28;;;25.40;86.30;;;;;;4961094;28;20249;-74
2022/06/24 08:01:48;;;;;;;3.22;2.40;;;25.40;86.00;;;;;;4963623;28;20234;-75
2022/06/24 08:04:15;;;;;;;3.38;2.50;;;25.40;86.70;;;;;;4961956;28;20211;-74
2022/06/24 08:06:46;;;;;;;4.70;2.40;;;25.40;85.80;;;;;;4962706;28;20210;-74
2022/06/24 08:09:13;;;;;;;5.00;2.50;;;25.50;86.10;;;;;;4961606;28;20210;-75
2022/06/24 08:11:40;;;;;;;3.53;2.10;;;25.60;85.40;;;;;;4961240;28;20205;-74
2022/06/24 08:14:07;;;;;;;5.97;2.47;;;25.70;84.80;;;;;;4958534;28;20216;-75
2022/06/24 08:16:34;;;;;;;2.83;2.10;;;25.80;85.50;;;;;;4968674;28;20210;-74
2022/06/24 08:19:01;;;;;;;2.60;2.40;;;25.80;85.30;;;;;;4959871;28;20211;-74
2022/06/24 08:21:30;;;;;;;3.88;2.25;;;25.80;83.70;;;;;;4963004;28;20227;-74
2022/06/24 08:23:59;;;;;;;3.78;2.40;;;25.80;83.50;;;;;;4964537;28;20215;-74
2022/06/24 08:26:29;;;;;;;2.85;2.10;;;25.90;84.50;;;;;;4957509;28;20739;-74
2022/06/24 08:28:56;;;;;;;4.47;2.33;;;25.90;84.30;;;;;;4959098;28;20207;-75
2022/06/24 08:31:32;;;;;;;3.90;2.45;;;26.00;83.50;;;;;;4963780;28;20238;-75
2022/06/24 08:33:58;;;;;;;2.60;2.40;;;26.00;83.20;;;;;;4961140;28;20213;-74
2022/06/24 08:36:28;;;;;;;2.95;2.20;;;26.10;82.60;;;;;;4959561;28;20208;-75
2022/06/24 08:38:55;;;;;;;4.00;2.72;;;26.10;83.20;;;;;;4964550;28;20661;-74
2022/06/24 08:42:29;;;;;;;2.38;2.28;;;26.10;84.00;;;;;;5064083;27;20591;-75
2022/06/24 08:44:59;;;;;;;3.45;2.20;;;26.20;83.80;;;;;;5063378;28;20671;-75
2022/06/24 08:47:26;;;;;;;2.63;2.20;;;26.20;83.60;;;;;;5061629;28;20207;-75
2022/06/24 08:49:53;;;;;;;3.95;2.60;;;26.30;81.90;;;;;;5063734;28;20199;-75
2022/06/24 08:52:20;;;;;;;5.25;2.40;;;26.40;81.90;;;;;;5063660;28;20203;-75
2022/06/24 08:54:50;;;;;;;2.90;2.50;;;26.40;81.40;;;;;;5063868;28;20211;-75
2022/06/24 08:57:17;;;;;;;2.33;2.20;;;26.40;81.30;;;;;;5064026;28;20200;-75
2022/06/24 08:59:46;;;;;;;3.75;2.35;;;26.50;81.60;;;;;;5063533;28;20596;-75
2022/06/24 09:02:14;;;;;;;2.45;2.20;;;26.60;81.60;;;;;;5063214;28;20255;-75
2022/06/24 09:04:44;;;;;;;5.50;2.17;;;26.60;81.30;;;;;;5063732;28;20200;-75
2022/06/24 09:07:18;;;;;;;4.95;2.45;;;26.70;81.40;;;;;;5063512;28;20208;-75
2022/06/24 09:09:57;;;;;;;8.02;2.47;;;26.70;81.90;;;;;;5063584;28;20198;-75
2022/06/24 09:12:24;;;;;;;3.17;2.30;;;26.70;82.60;;;;;;5056216;28;20196;-75
2022/06/24 09:14:52;;;;;;;3.05;2.38;;;26.80;81.00;;;;;;5063378;28;20290;-75
2022/06/24 09:17:28;;;;;;;3.72;2.75;;;26.80;81.80;;;;;;5063118;28;20214;-75
2022/06/24 09:20:04;;;;;;;3.78;2.20;;;26.90;82.20;;;;;;5061985;28;20206;-75
2022/06/24 09:22:31;;;;;;;2.47;2.30;;;26.90;81.80;;;;;;5062167;28;20773;-75
2022/06/24 09:25:01;;;;;;;4.03;2.28;;;26.90;81.30;;;;;;5063265;28;20207;-75
2022/06/24 09:27:28;;;;;;;4.25;2.42;;;27.00;81.30;;;;;;5063445;28;20200;-75
2022/06/24 09:29:56;;;;;;;2.38;2.17;;;27.00;81.20;;;;;;5060878;28;20234;-75
2022/06/24 09:32:23;;;;;;;4.00;2.40;;;27.10;81.80;;;;;;5049456;28;20230;-75
2022/06/24 09:35:00;;;;;;;2.53;2.33;;;27.20;82.00;;;;;;5057302;28;20666;-75
2022/06/24 09:37:38;;;;;;;4.10;2.67;;;27.20;81.00;;;;;;5049774;28;20212;-75
2022/06/24 09:40:22;;;;;;;2.72;2.47;;;27.30;81.20;;;;;;5053399;28;20681;-75
2022/06/24 09:42:57;;;;;;;6.32;2.80;;;27.30;81.00;;;;;;5049614;28;20542;-75
2022/06/24 09:45:26;;;;;;;4.40;2.83;;;27.40;81.10;;;;;;5052799;28;20200;-75
2022/06/24 09:47:54;;;;;;;2.90;2.70;;;27.40;81.90;;;;;;5048899;28;20294;-75
2022/06/24 09:50:21;;;;;;;2.90;2.70;;;27.50;82.20;;;;;;5053848;28;20318;-75
2022/06/24 09:52:50;;;;;;;4.10;2.45;;;27.50;80.90;;;;;;5048368;28;20548;-75
2022/06/24 09:55:17;;;;;;;2.75;2.55;;;27.50;79.60;;;;;;5045766;28;20204;-75
2022/06/24 09:57:44;;;;;;;2.83;2.63;;;27.50;80.30;;;;;;5044019;28;20208;-75
2022/06/24 10:03:08;;;;;;;5.40;2.58;;;27.70;81.00;;;;;;5011079;28;20208;-75
2022/06/24 10:05:36;;;;;;;2.88;2.33;;;27.70;80.00;;;;;;5050300;28;20204;-75
2022/06/24 10:08:06;;;;;;;3.70;2.50;;;27.70;79.30;;;;;;5038512;28;20211;-75
2022/06/24 10:10:34;;;;;;;3.50;2.20;;;27.70;78.50;;;;;;5037767;28;20207;-75
2022/06/24 10:13:06;;;;;;;2.72;2.53;;;27.80;78.60;;;;;;5038432;28;20667;-75
2022/06/24 10:15:34;;;;;;;2.45;2.33;;;27.80;78.80;;;;;;5037293;28;20196;-75
2022/06/24 10:18:07;;;;;;;2.60;2.40;;;27.90;79.30;;;;;;5040957;28;20197;-75
2022/06/24 10:20:35;;;;;;;2.47;2.20;;;28.00;78.90;;;;;;5037965;28;20192;-75
2022/06/24 10:23:02;;;;;;;3.65;2.20;;;28.00;78.00;;;;;;5035662;28;20207;-75
2022/06/24 10:25:53;;;;;;;3.75;2.33;;;28.00;77.20;;;;;;5039121;28;20197;-75
2022/06/24 10:28:20;;;;;;;6.78;2.33;;;28.10;76.00;;;;;;5038128;28;20217;-76
2022/06/24 10:30:58;;;;;;;2.10;2.00;;;28.20;76.20;;;;;;5037085;28;20224;-75
2022/06/24 10:33:30;;;;;;;2.75;2.55;;;28.30;76.90;;;;;;5038460;28;20320;-75
2022/06/24 10:36:02;;;;;;;4.10;2.28;;;28.40;75.60;;;;;;5036653;28;20242;-75
2022/06/24 10:38:36;;;;;;;2.30;2.13;;;28.40;73.30;;;;;;5036613;28;20201;-75
2022/06/24 10:41:04;;;;;;;2.20;2.00;;;28.50;72.80;;;;;;5039386;28;20698;-75
2022/06/24 10:43:36;;;;;;;3.53;2.38;;;28.70;73.90;;;;;;5036786;28;20201;-75
2022/06/24 10:46:40;;;;;;;5.68;2.22;;;28.70;74.40;;;;;;5037990;28;20288;-75
2022/06/24 10:49:08;;;;;;;9.80;2.40;;;28.90;74.20;;;;;;5036402;28;20287;-76
2022/06/24 10:51:35;;;;;;;2.65;1.95;;;29.00;74.20;;;;;;5039336;28;20670;-75
2022/06/24 10:54:14;;;;;;;4.65;2.53;;;29.10;73.70;;;;;;5037151;28;20204;-75
2022/06/24 10:56:44;;;;;;;2.30;2.10;;;29.20;74.20;;;;;;5037665;28;20273;-75
2022/06/24 10:59:13;;;;;;;3.90;2.42;;;29.20;73.10;;;;;;5041252;28;20205;-75
2022/06/24 11:01:42;;;;;;;3.15;1.98;;;29.30;72.70;;;;;;5042096;28;20239;-75
2022/06/24 11:04:13;;;;;;;5.28;1.90;;;29.30;72.80;;;;;;5038333;28;20257;-75
2022/06/24 11:06:40;;;;;;;2.10;1.90;;;29.40;72.40;;;;;;5038999;28;20196;-75
2022/06/24 11:09:07;;;;;;;2.53;2.20;;;29.40;72.60;;;;;;5034093;28;20209;-76
2022/06/24 11:11:35;;;;;;;4.05;2.50;;;29.50;73.00;;;;;;5038396;28;20296;-76
2022/06/24 11:14:26;;;;;;;2.60;2.08;;;29.50;71.90;;;;;;5040097;28;20219;-75
2022/06/24 11:16:54;;;;;;;2.75;2.00;;;29.50;72.90;;;;;;5037732;28;20201;-75
2022/06/24 11:19:22;;;;;;;4.95;2.10;;;29.60;73.70;;;;;;5036409;28;20686;-76
2022/06/24 11:21:51;;;;;;;2.42;2.00;;;29.60;72.10;;;;;;5039057;28;20215;-75
2022/06/24 11:24:19;;;;;;;2.22;2.10;;;29.70;71.80;;;;;;5041103;28;20300;-75
2022/06/24 11:27:06;;;;;;;3.30;2.17;;;29.80;71.80;;;;;;5036322;28;20223;-75
2022/06/24 11:29:52;;;;;;;3.50;2.17;;;29.80;70.60;;;;;;5037299;28;20203;-75
2022/06/24 11:32:20;;;;;;;2.55;2.20;;;29.90;72.90;;;;;;5038932;28;20196;-76
2022/06/24 11:34:49;;;;;;;4.13;2.58;;;29.80;71.60;;;;;;5037462;28;20200;-75
2022/06/24 11:37:20;;;;;;;2.53;2.17;;;29.70;71.40;;;;;;5039492;28;20204;-76
2022/06/24 11:39:47;;;;;;;2.75;2.45;;;29.70;70.50;;;;;;5040872;28;20201;-75
2022/06/24 11:42:16;;;;;;;2.83;2.20;;;29.60;70.60;;;;;;5037561;28;20244;-75
2022/06/24 11:44:43;;;;;;;2.95;2.25;;;29.60;70.00;;;;;;5038050;28;20737;-76
2022/06/24 11:47:10;;;;;;;2.30;2.10;;;29.60;71.00;;;;;;5046095;28;20200;-76
2022/06/24 11:49:42;;;;;;;2.38;2.20;;;29.60;69.10;;;;;;5042600;28;20671;-75
2022/06/24 11:52:10;;;;;;;2.88;2.08;;;29.60;68.50;;;;;;5028109;28;20288;-75
2022/06/24 11:54:37;;;;;;;2.33;2.15;;;29.50;69.30;;;;;;5040402;28;20219;-75
2022/06/24 11:57:08;;;;;;;2.15;2.05;;;29.50;68.70;;;;;;5047889;28;20627;-75
2022/06/24 11:59:35;;;;;;;3.97;2.40;;;29.50;68.60;;;;;;5047852;28;20775;-75
2022/06/24 12:02:03;;;;;;;3.72;2.30;;;29.50;72.30;;;;;;5048201;28;20720;-75
2022/06/24 12:04:30;;;;;;;5.82;2.50;;;29.40;70.60;;;;;;5045395;28;20869;-75
2022/06/24 12:06:58;;;;;;;5.75;2.28;;;29.40;70.50;;;;;;5045844;28;20219;-75
2022/06/24 12:09:26;;;;;;;3.85;2.30;;;29.40;68.20;;;;;;5046732;28;20211;-76
2022/06/24 12:11:52;;;;;;;2.65;2.00;;;29.40;68.20;;;;;;5047346;28;20208;-75
2022/06/24 12:14:20;;;;;;;2.20;2.10;;;29.40;68.70;;;;;;5039684;28;20209;-76
2022/06/24 12:16:58;;;;;;;2.13;2.03;;;29.40;69.50;;;;;;5041466;28;20215;-75
2022/06/24 12:19:26;;;;;;;5.53;2.10;;;29.40;68.80;;;;;;5040433;28;20209;-76
2022/06/24 12:22:06;;;;;;;3.20;2.15;;;29.40;68.60;;;;;;5040536;28;21010;-75
2022/06/24 12:24:35;;;;;;;2.85;2.20;;;29.50;69.10;;;;;;5030230;28;20197;-75
2022/06/24 12:27:04;;;;;;;3.50;2.30;;;29.60;69.20;;;;;;5035370;28;20638;-76
2022/06/24 12:29:33;;;;;;;2.50;2.13;;;29.60;69.40;;;;;;5044261;28;20208;-75
2022/06/24 12:32:03;;;;;;;2.30;2.20;;;29.60;69.80;;;;;;5034921;28;21113;-76
2022/06/24 12:34:32;;;;;;;3.47;2.17;;;29.70;68.70;;;;;;5036190;28;20204;-76
2022/06/24 12:37:00;;;;;;;6.75;2.10;;;29.70;69.20;;;;;;5033003;28;20203;-76
2022/06/24 12:39:29;;;;;;;2.17;1.95;;;29.80;70.20;;;;;;5035291;28;20857;-75
2022/06/24 12:41:57;;;;;;;3.45;2.10;;;29.80;68.80;;;;;;5032736;28;20339;-76
2022/06/24 12:44:28;;;;;;;2.33;2.22;;;29.80;68.20;;;;;;5033962;28;20212;-76
2022/06/24 12:52:38;;;;;;;4.15;2.13;;;29.90;69.30;;;;;;5031884;28;20570;-76
2022/06/24 12:55:06;;;;;;;4.15;2.10;;;29.90;68.00;;;;;;5034548;28;20201;-76
2022/06/24 12:57:35;;;;;;;3.88;1.80;;;29.90;68.80;;;;;;5041769;28;20200;-76
2022/06/24 13:00:07;;;;;;;3.92;2.10;;;29.90;71.30;;;;;;5032030;28;20224;-76
2022/06/24 13:02:34;;;;;;;5.75;2.20;;;29.90;67.90;;;;;;5034619;28;20761;-76
2022/06/24 13:05:00;;;;;;;6.13;2.00;;;30.00;67.40;;;;;;5037336;28;20211;-76
2022/06/24 13:07:27;;;;;;;3.65;2.28;;;30.00;67.70;;;;;;5027378;28;20296;-76
2022/06/24 13:09:54;;;;;;;2.80;1.80;;;30.00;65.70;;;;;;5027601;28;20365;-76
2022/06/24 13:12:21;;;;;;;3.80;2.15;;;30.00;64.80;;;;;;5027344;28;20212;-76
2022/06/24 13:14:49;;;;;;;1.88;1.77;;;30.00;65.30;;;;;;5046356;28;20223;-79